sensor_id;sensor_type;location;lat;lon;timestamp;pressure;altitude;pressure_sealevel;temperature;humidity
33191;BME280;19554;42.652;23.364;2023-11-19T00:00:50;94557.38;;;3.59;68.25
33191;BME280;19554;42.652;23.364;2023-11-19T00:03:16;94452.00;;;2.86;68.17
33191;BME280;19554;42.652;23.364;2023-11-19T00:05:43;94565.31;;;3.59;68.05
33191;BME280;19554;42.652;23.364;2023-11-19T00:08:09;94520.31;;;3.26;68.24
33191;BME280;19554;42.652;23.364;2023-11-19T00:10:35;94556.63;;;3.41;68.28
33191;BME280;19554;42.652;23.364;2023-11-19T00:13:00;94561.56;;;3.54;67.82
33191;BME280;19554;42.652;23.364;2023-11-19T00:15:28;94572.25;;;3.65;67.44
33191;BME280;19554;42.652;23.364;2023-11-19T00:17:53;94562.19;;;3.62;67.61
33191;BME280;19554;42.652;23.364;2023-11-19T00:20:20;94546.31;;;3.56;67.42
33191;BME280;19554;42.652;23.364;2023-11-19T00:22:47;94581.41;;;3.79;67.16
33191;BME280;19554;42.652;23.364;2023-11-19T00:25:17;94575.88;;;3.80;66.66
33191;BME280;19554;42.652;23.364;2023-11-19T00:27:42;94561.28;;;3.73;67.59
33191;BME280;19554;42.652;23.364;2023-11-19T00:30:10;94567.19;;;3.80;67.42
33191;BME280;19554;42.652;23.364;2023-11-19T00:32:36;94581.56;;;3.72;66.83
33191;BME280;19554;42.652;23.364;2023-11-19T00:35:04;94578.41;;;3.70;67.11
33191;BME280;19554;42.652;23.364;2023-11-19T00:37:29;94569.38;;;3.66;67.34
33191;BME280;19554;42.652;23.364;2023-11-19T00:39:55;94576.34;;;3.55;67.44
33191;BME280;19554;42.652;23.364;2023-11-19T00:42:22;94588.53;;;3.56;67.87
33191;BME280;19554;42.652;23.364;2023-11-19T00:44:49;94573.66;;;3.50;67.69
33191;BME280;19554;42.652;23.364;2023-11-19T00:47:14;94592.25;;;3.61;67.39
33191;BME280;19554;42.652;23.364;2023-11-19T00:49:40;94558.03;;;3.27;67.59
33191;BME280;19554;42.652;23.364;2023-11-19T00:52:05;94561.38;;;3.39;67.47
33191;BME280;19554;42.652;23.364;2023-11-19T00:54:32;94565.69;;;3.45;67.68
33191;BME280;19554;42.652;23.364;2023-11-19T00:56:57;94572.69;;;3.56;67.23
33191;BME280;19554;42.652;23.364;2023-11-19T00:59:23;94532.75;;;3.31;67.99
33191;BME280;19554;42.652;23.364;2023-11-19T01:01:48;94511.69;;;3.14;67.60
33191;BME280;19554;42.652;23.364;2023-11-19T01:04:14;94594.28;;;3.53;67.65
33191;BME280;19554;42.652;23.364;2023-11-19T01:06:40;94578.38;;;3.48;67.99
33191;BME280;19554;42.652;23.364;2023-11-19T01:09:07;94604.50;;;3.67;68.04
33191;BME280;19554;42.652;23.364;2023-11-19T01:11:34;94584.66;;;3.64;67.79
33191;BME280;19554;42.652;23.364;2023-11-19T01:13:59;94595.81;;;3.71;67.57
33191;BME280;19554;42.652;23.364;2023-11-19T01:16:26;94602.25;;;3.59;67.37
33191;BME280;19554;42.652;23.364;2023-11-19T01:18:51;94554.63;;;3.48;67.29
33191;BME280;19554;42.652;23.364;2023-11-19T01:21:17;94540.28;;;3.39;67.04
33191;BME280;19554;42.652;23.364;2023-11-19T01:23:43;94587.50;;;3.79;67.30
33191;BME280;19554;42.652;23.364;2023-11-19T01:26:09;94587.28;;;3.86;66.55
33191;BME280;19554;42.652;23.364;2023-11-19T01:28:38;94586.19;;;3.82;66.37
33191;BME280;19554;42.652;23.364;2023-11-19T01:31:05;94588.00;;;3.76;66.76
33191;BME280;19554;42.652;23.364;2023-11-19T01:33:31;94585.69;;;3.85;66.78
33191;BME280;19554;42.652;23.364;2023-11-19T01:35:56;94585.56;;;3.75;66.65
33191;BME280;19554;42.652;23.364;2023-11-19T01:38:24;94579.75;;;3.73;66.65
33191;BME280;19554;42.652;23.364;2023-11-19T01:40:49;94590.72;;;3.65;66.40
33191;BME280;19554;42.652;23.364;2023-11-19T01:43:33;94587.13;;;3.32;67.80
33191;BME280;19554;42.652;23.364;2023-11-19T01:46:00;94528.22;;;2.88;68.00
33191;BME280;19554;42.652;23.364;2023-11-19T01:48:26;94580.56;;;3.18;67.83
33191;BME280;19554;42.652;23.364;2023-11-19T01:50:52;94591.78;;;3.08;68.10
33191;BME280;19554;42.652;23.364;2023-11-19T01:53:18;94593.38;;;3.09;67.94
33191;BME280;19554;42.652;23.364;2023-11-19T01:55:46;94591.53;;;3.09;68.22
33191;BME280;19554;42.652;23.364;2023-11-19T01:58:12;94596.50;;;3.06;68.01
33191;BME280;19554;42.652;23.364;2023-11-19T02:00:38;94565.13;;;2.88;68.00
33191;BME280;19554;42.652;23.364;2023-11-19T02:03:05;94596.75;;;3.04;67.78
33191;BME280;19554;42.652;23.364;2023-11-19T02:05:33;94598.81;;;3.02;67.80
33191;BME280;19554;42.652;23.364;2023-11-19T02:08:00;94595.63;;;3.00;68.02
33191;BME280;19554;42.652;23.364;2023-11-19T02:10:26;94586.69;;;3.01;67.75
33191;BME280;19554;42.652;23.364;2023-11-19T02:12:52;94575.66;;;3.04;67.60
33191;BME280;19554;42.652;23.364;2023-11-19T02:15:17;94585.06;;;3.00;67.33
33191;BME280;19554;42.652;23.364;2023-11-19T02:17:50;94599.13;;;3.06;67.40
33191;BME280;19554;42.652;23.364;2023-11-19T02:20:15;94517.84;;;2.47;67.12
33191;BME280;19554;42.652;23.364;2023-11-19T02:22:41;94590.81;;;2.97;67.18
33191;BME280;19554;42.652;23.364;2023-11-19T02:25:08;94602.88;;;3.10;67.15
33191;BME280;19554;42.652;23.364;2023-11-19T02:27:57;94598.81;;;3.02;67.14
33191;BME280;19554;42.652;23.364;2023-11-19T02:30:23;94611.44;;;3.17;67.10
33191;BME280;19554;42.652;23.364;2023-11-19T02:32:55;94612.31;;;3.23;66.48
33191;BME280;19554;42.652;23.364;2023-11-19T02:35:26;94607.09;;;3.28;66.36
33191;BME280;19554;42.652;23.364;2023-11-19T02:37:52;94594.47;;;3.30;66.41
33191;BME280;19554;42.652;23.364;2023-11-19T02:40:17;94586.97;;;3.39;65.92
33191;BME280;19554;42.652;23.364;2023-11-19T02:42:43;94590.75;;;3.48;65.40
33191;BME280;19554;42.652;23.364;2023-11-19T02:45:09;94563.13;;;3.33;65.31
33191;BME280;19554;42.652;23.364;2023-11-19T02:47:43;94583.81;;;3.42;65.29
33191;BME280;19554;42.652;23.364;2023-11-19T02:50:11;94584.56;;;3.37;65.32
33191;BME280;19554;42.652;23.364;2023-11-19T02:52:44;94587.53;;;3.24;65.82
33191;BME280;19554;42.652;23.364;2023-11-19T02:55:11;94535.31;;;2.87;66.03
33191;BME280;19554;42.652;23.364;2023-11-19T02:57:40;94534.75;;;2.85;65.97
33191;BME280;19554;42.652;23.364;2023-11-19T03:00:17;94576.81;;;3.30;65.94
33191;BME280;19554;42.652;23.364;2023-11-19T03:02:43;94557.25;;;3.09;65.84
33191;BME280;19554;42.652;23.364;2023-11-19T03:05:13;94577.53;;;3.26;65.90
33191;BME280;19554;42.652;23.364;2023-11-19T03:07:41;94589.19;;;3.30;65.83
33191;BME280;19554;42.652;23.364;2023-11-19T03:10:08;94586.00;;;3.28;65.65
33191;BME280;19554;42.652;23.364;2023-11-19T03:12:34;94593.28;;;3.21;65.74
33191;BME280;19554;42.652;23.364;2023-11-19T03:15:00;94590.16;;;3.24;65.80
33191;BME280;19554;42.652;23.364;2023-11-19T03:17:26;94594.28;;;3.15;65.81
33191;BME280;19554;42.652;23.364;2023-11-19T03:19:51;94602.97;;;3.15;65.82
33191;BME280;19554;42.652;23.364;2023-11-19T03:22:17;94518.22;;;2.73;65.93
33191;BME280;19554;42.652;23.364;2023-11-19T03:24:42;94591.97;;;3.01;66.07
33191;BME280;19554;42.652;23.364;2023-11-19T03:27:08;94594.66;;;3.06;66.45
33191;BME280;19554;42.652;23.364;2023-11-19T03:29:33;94512.81;;;2.63;65.97
33191;BME280;19554;42.652;23.364;2023-11-19T03:31:58;94609.03;;;3.16;66.05
33191;BME280;19554;42.652;23.364;2023-11-19T03:34:24;94590.34;;;3.00;66.40
33191;BME280;19554;42.652;23.364;2023-11-19T03:36:49;94527.03;;;2.61;66.75
33191;BME280;19554;42.652;23.364;2023-11-19T03:39:15;94608.88;;;3.05;66.62
33191;BME280;19554;42.652;23.364;2023-11-19T03:41:40;94596.66;;;2.99;66.60
33191;BME280;19554;42.652;23.364;2023-11-19T03:44:05;94603.38;;;3.07;66.42
33191;BME280;19554;42.652;23.364;2023-11-19T03:46:31;94606.41;;;3.16;66.18
33191;BME280;19554;42.652;23.364;2023-11-19T03:48:56;94612.78;;;3.20;66.02
33191;BME280;19554;42.652;23.364;2023-11-19T03:51:22;94632.22;;;3.14;66.09
33191;BME280;19554;42.652;23.364;2023-11-19T03:53:47;94628.22;;;3.11;66.19
33191;BME280;19554;42.652;23.364;2023-11-19T03:56:13;94555.13;;;2.73;66.45
33191;BME280;19554;42.652;23.364;2023-11-19T03:58:39;94633.97;;;3.25;65.91
33191;BME280;19554;42.652;23.364;2023-11-19T04:01:05;94623.28;;;3.15;65.88
33191;BME280;19554;42.652;23.364;2023-11-19T04:03:31;94638.28;;;3.31;65.90
33191;BME280;19554;42.652;23.364;2023-11-19T04:05:57;94625.50;;;3.23;65.76
33191;BME280;19554;42.652;23.364;2023-11-19T04:08:22;94556.81;;;2.79;65.89
33191;BME280;19554;42.652;23.364;2023-11-19T04:10:48;94604.16;;;3.07;65.86
33191;BME280;19554;42.652;23.364;2023-11-19T04:13:14;94634.38;;;3.17;66.12
33191;BME280;19554;42.652;23.364;2023-11-19T04:15:39;94636.06;;;3.23;66.05
33191;BME280;19554;42.652;23.364;2023-11-19T04:18:04;94648.19;;;3.24;66.17
33191;BME280;19554;42.652;23.364;2023-11-19T04:20:30;94639.25;;;3.25;66.18
33191;BME280;19554;42.652;23.364;2023-11-19T04:22:57;94641.50;;;3.16;66.53
33191;BME280;19554;42.652;23.364;2023-11-19T04:25:22;94616.72;;;3.00;66.52
33191;BME280;19554;42.652;23.364;2023-11-19T04:27:47;94634.84;;;3.14;66.75
33191;BME280;19554;42.652;23.364;2023-11-19T04:30:13;94618.53;;;3.00;66.75
33191;BME280;19554;42.652;23.364;2023-11-19T04:32:39;94566.94;;;2.53;66.75
33191;BME280;19554;42.652;23.364;2023-11-19T04:35:05;94637.16;;;2.93;66.85
33191;BME280;19554;42.652;23.364;2023-11-19T04:37:32;94640.75;;;3.04;66.58
33191;BME280;19554;42.652;23.364;2023-11-19T04:39:57;94652.81;;;3.00;66.44
33191;BME280;19554;42.652;23.364;2023-11-19T04:42:22;94646.91;;;3.09;66.33
33191;BME280;19554;42.652;23.364;2023-11-19T04:44:49;94561.50;;;2.43;66.30
33191;BME280;19554;42.652;23.364;2023-11-19T04:47:15;94656.66;;;3.09;66.13
33191;BME280;19554;42.652;23.364;2023-11-19T04:49:40;94647.53;;;3.00;66.59
33191;BME280;19554;42.652;23.364;2023-11-19T04:52:08;94633.34;;;2.84;66.41
33191;BME280;19554;42.652;23.364;2023-11-19T04:54:34;94625.31;;;2.79;66.47
33191;BME280;19554;42.652;23.364;2023-11-19T04:56:59;94572.50;;;2.40;66.62
33191;BME280;19554;42.652;23.364;2023-11-19T04:59:25;94596.88;;;2.47;66.50
33191;BME280;19554;42.652;23.364;2023-11-19T05:01:50;94660.34;;;2.91;66.44
33191;BME280;19554;42.652;23.364;2023-11-19T05:04:16;94653.78;;;2.94;66.54
33191;BME280;19554;42.652;23.364;2023-11-19T05:06:43;94670.88;;;2.91;66.63
33191;BME280;19554;42.652;23.364;2023-11-19T05:09:09;94677.03;;;2.97;66.21
33191;BME280;19554;42.652;23.364;2023-11-19T05:11:37;94679.75;;;3.02;66.19
33191;BME280;19554;42.652;23.364;2023-11-19T05:14:04;94678.78;;;2.91;65.71
33191;BME280;19554;42.652;23.364;2023-11-19T05:16:30;94647.34;;;2.73;65.83
33191;BME280;19554;42.652;23.364;2023-11-19T05:18:55;94655.38;;;2.78;65.94
33191;BME280;19554;42.652;23.364;2023-11-19T05:21:20;94649.53;;;2.76;65.72
33191;BME280;19554;42.652;23.364;2023-11-19T05:23:46;94685.91;;;3.07;65.99
33191;BME280;19554;42.652;23.364;2023-11-19T05:26:18;94642.09;;;2.90;65.38
33191;BME280;19554;42.652;23.364;2023-11-19T05:28:45;94662.56;;;2.99;65.31
33191;BME280;19554;42.652;23.364;2023-11-19T05:31:10;94659.38;;;2.97;65.37
33191;BME280;19554;42.652;23.364;2023-11-19T05:33:36;94674.72;;;3.00;65.30
33191;BME280;19554;42.652;23.364;2023-11-19T05:36:02;94656.19;;;2.95;65.29
33191;BME280;19554;42.652;23.364;2023-11-19T05:38:29;94690.69;;;3.11;65.12
33191;BME280;19554;42.652;23.364;2023-11-19T05:40:55;94686.72;;;3.08;64.76
33191;BME280;19554;42.652;23.364;2023-11-19T05:43:20;94690.53;;;3.17;64.79
33191;BME280;19554;42.652;23.364;2023-11-19T05:45:46;94665.47;;;3.15;64.58
33191;BME280;19554;42.652;23.364;2023-11-19T05:48:12;94670.06;;;3.07;64.62
33191;BME280;19554;42.652;23.364;2023-11-19T05:50:38;94688.06;;;3.11;65.30
33191;BME280;19554;42.652;23.364;2023-11-19T05:53:04;94685.34;;;3.05;65.34
33191;BME280;19554;42.652;23.364;2023-11-19T05:55:38;94677.44;;;3.05;65.42
33191;BME280;19554;42.652;23.364;2023-11-19T05:58:11;94671.84;;;3.02;65.65
33191;BME280;19554;42.652;23.364;2023-11-19T06:00:38;94643.28;;;2.65;65.71
33191;BME280;19554;42.652;23.364;2023-11-19T06:03:04;94702.03;;;2.94;66.00
33191;BME280;19554;42.652;23.364;2023-11-19T06:05:29;94682.38;;;2.85;65.94
33191;BME280;19554;42.652;23.364;2023-11-19T06:07:55;94702.03;;;2.94;66.21
33191;BME280;19554;42.652;23.364;2023-11-19T06:10:20;94710.03;;;2.99;66.49
33191;BME280;19554;42.652;23.364;2023-11-19T06:12:46;94694.31;;;2.76;66.17
33191;BME280;19554;42.652;23.364;2023-11-19T06:15:12;94715.59;;;2.86;66.66
33191;BME280;19554;42.652;23.364;2023-11-19T06:17:38;94721.00;;;2.79;66.85
33191;BME280;19554;42.652;23.364;2023-11-19T06:20:04;94715.25;;;2.82;66.74
33191;BME280;19554;42.652;23.364;2023-11-19T06:22:30;94699.44;;;2.82;66.62
33191;BME280;19554;42.652;23.364;2023-11-19T06:24:56;94706.09;;;2.85;66.51
33191;BME280;19554;42.652;23.364;2023-11-19T06:27:22;94676.34;;;2.73;66.68
33191;BME280;19554;42.652;23.364;2023-11-19T06:29:47;94707.69;;;2.86;66.63
33191;BME280;19554;42.652;23.364;2023-11-19T06:32:13;94698.00;;;2.75;66.56
33191;BME280;19554;42.652;23.364;2023-11-19T06:34:38;94714.19;;;2.95;66.76
33191;BME280;19554;42.652;23.364;2023-11-19T06:37:04;94697.00;;;2.93;66.51
33191;BME280;19554;42.652;23.364;2023-11-19T06:39:30;94693.84;;;2.79;66.46
33191;BME280;19554;42.652;23.364;2023-11-19T06:41:55;94714.53;;;2.87;66.69
33191;BME280;19554;42.652;23.364;2023-11-19T06:44:20;94637.78;;;2.38;66.59
33191;BME280;19554;42.652;23.364;2023-11-19T06:46:48;94710.13;;;2.76;66.84
33191;BME280;19554;42.652;23.364;2023-11-19T06:49:13;94709.66;;;2.79;66.60
33191;BME280;19554;42.652;23.364;2023-11-19T06:51:42;94692.53;;;2.65;66.42
33191;BME280;19554;42.652;23.364;2023-11-19T06:54:09;94692.53;;;2.65;66.23
33191;BME280;19554;42.652;23.364;2023-11-19T06:56:34;94690.06;;;2.58;66.73
33191;BME280;19554;42.652;23.364;2023-11-19T06:58:59;94709.63;;;2.62;66.31
33191;BME280;19554;42.652;23.364;2023-11-19T07:01:25;94723.31;;;2.76;66.32
33191;BME280;19554;42.652;23.364;2023-11-19T07:03:50;94717.38;;;2.69;66.35
33191;BME280;19554;42.652;23.364;2023-11-19T07:06:16;94690.97;;;2.64;66.01
33191;BME280;19554;42.652;23.364;2023-11-19T07:08:42;94718.63;;;2.78;65.37
33191;BME280;19554;42.652;23.364;2023-11-19T07:11:11;94715.03;;;2.84;65.40
33191;BME280;19554;42.652;23.364;2023-11-19T07:13:37;94723.88;;;2.78;65.23
33191;BME280;19554;42.652;23.364;2023-11-19T07:16:03;94747.41;;;2.96;64.91
33191;BME280;19554;42.652;23.364;2023-11-19T07:18:29;94637.13;;;2.31;65.26
33191;BME280;19554;42.652;23.364;2023-11-19T07:20:54;94743.25;;;3.00;65.14
33191;BME280;19554;42.652;23.364;2023-11-19T07:23:20;94721.97;;;2.90;64.61
33191;BME280;19554;42.652;23.364;2023-11-19T07:25:46;94755.47;;;3.18;64.31
33191;BME280;19554;42.652;23.364;2023-11-19T07:28:13;94716.91;;;3.00;64.50
33191;BME280;19554;42.652;23.364;2023-11-19T07:30:38;94761.13;;;3.27;63.92
33191;BME280;19554;42.652;23.364;2023-11-19T07:33:04;94738.47;;;2.97;64.11
33191;BME280;19554;42.652;23.364;2023-11-19T07:35:29;94777.78;;;2.99;64.17
33191;BME280;19554;42.652;23.364;2023-11-19T07:37:58;94785.31;;;3.07;64.40
33191;BME280;19554;42.652;23.364;2023-11-19T07:40:24;94715.22;;;2.66;64.28
33191;BME280;19554;42.652;23.364;2023-11-19T07:42:49;94775.41;;;3.14;64.17
33191;BME280;19554;42.652;23.364;2023-11-19T07:45:15;94763.53;;;3.12;63.44
33191;BME280;19554;42.652;23.364;2023-11-19T07:47:40;94792.38;;;3.18;63.08
33191;BME280;19554;42.652;23.364;2023-11-19T07:50:06;94773.03;;;3.13;63.08
33191;BME280;19554;42.652;23.364;2023-11-19T07:52:32;94768.88;;;3.17;62.51
33191;BME280;19554;42.652;23.364;2023-11-19T07:54:57;94733.09;;;2.92;62.87
33191;BME280;19554;42.652;23.364;2023-11-19T07:57:23;94679.06;;;2.49;62.44
33191;BME280;19554;42.652;23.364;2023-11-19T07:59:49;94751.75;;;3.02;63.11
33191;BME280;19554;42.652;23.364;2023-11-19T08:02:15;94785.53;;;3.34;62.31
33191;BME280;19554;42.652;23.364;2023-11-19T08:04:40;94797.78;;;3.40;62.44
33191;BME280;19554;42.652;23.364;2023-11-19T08:07:10;94789.69;;;3.30;62.53
33191;BME280;19554;42.652;23.364;2023-11-19T08:09:36;94741.88;;;2.81;62.55
33191;BME280;19554;42.652;23.364;2023-11-19T08:12:03;94784.66;;;3.00;63.35
33191;BME280;19554;42.652;23.364;2023-11-19T08:14:28;94755.97;;;3.03;63.22
33191;BME280;19554;42.652;23.364;2023-11-19T08:16:54;94782.03;;;3.28;63.37
33191;BME280;19554;42.652;23.364;2023-11-19T08:19:19;94800.03;;;3.20;62.52
33191;BME280;19554;42.652;23.364;2023-11-19T08:21:45;94772.84;;;3.02;62.66
33191;BME280;19554;42.652;23.364;2023-11-19T08:24:10;94809.72;;;3.31;62.84
33191;BME280;19554;42.652;23.364;2023-11-19T08:26:35;94814.81;;;3.49;62.85
33191;BME280;19554;42.652;23.364;2023-11-19T08:29:01;94815.06;;;3.65;62.27
33191;BME280;19554;42.652;23.364;2023-11-19T08:31:26;94763.97;;;3.54;61.39
33191;BME280;19554;42.652;23.364;2023-11-19T08:33:52;94817.09;;;4.08;60.49
33191;BME280;19554;42.652;23.364;2023-11-19T08:36:17;94790.69;;;4.30;59.51
33191;BME280;19554;42.652;23.364;2023-11-19T08:38:43;94809.13;;;4.64;58.78
33191;BME280;19554;42.652;23.364;2023-11-19T08:41:08;94810.31;;;4.73;57.83
33191;BME280;19554;42.652;23.364;2023-11-19T08:43:34;94811.97;;;4.79;57.16
33191;BME280;19554;42.652;23.364;2023-11-19T08:45:59;94822.41;;;4.69;57.82
33191;BME280;19554;42.652;23.364;2023-11-19T08:48:24;94818.53;;;4.77;57.01
33191;BME280;19554;42.652;23.364;2023-11-19T08:50:51;94787.41;;;4.40;56.92
33191;BME280;19554;42.652;23.364;2023-11-19T08:53:16;94800.56;;;4.57;57.37
33191;BME280;19554;42.652;23.364;2023-11-19T08:55:42;94811.84;;;4.69;57.43
33191;BME280;19554;42.652;23.364;2023-11-19T08:58:07;94822.94;;;4.49;57.17
33191;BME280;19554;42.652;23.364;2023-11-19T09:00:32;94819.91;;;4.40;57.57
33191;BME280;19554;42.652;23.364;2023-11-19T09:02:58;94792.25;;;4.09;57.99
33191;BME280;19554;42.652;23.364;2023-11-19T09:05:24;94812.13;;;4.12;58.02
33191;BME280;19554;42.652;23.364;2023-11-19T09:07:49;94748.91;;;3.71;58.53
33191;BME280;19554;42.652;23.364;2023-11-19T09:10:15;94773.56;;;3.94;58.64
33191;BME280;19554;42.652;23.364;2023-11-19T09:12:41;94802.13;;;4.14;58.33
33191;BME280;19554;42.652;23.364;2023-11-19T09:15:07;94696.28;;;3.65;58.45
33191;BME280;19554;42.652;23.364;2023-11-19T09:17:32;94733.69;;;3.95;58.02
33191;BME280;19554;42.652;23.364;2023-11-19T09:19:58;94777.97;;;4.27;58.06
33191;BME280;19554;42.652;23.364;2023-11-19T09:22:23;94789.28;;;4.22;58.04
33191;BME280;19554;42.652;23.364;2023-11-19T09:24:49;94798.19;;;3.99;59.03
33191;BME280;19554;42.652;23.364;2023-11-19T09:27:14;94796.59;;;3.98;59.00
33191;BME280;19554;42.652;23.364;2023-11-19T09:29:40;94804.94;;;3.90;59.14
33191;BME280;19554;42.652;23.364;2023-11-19T09:32:06;94814.69;;;3.73;58.94
33191;BME280;19554;42.652;23.364;2023-11-19T09:34:32;94795.94;;;3.58;59.87
33191;BME280;19554;42.652;23.364;2023-11-19T09:36:58;94785.72;;;3.78;59.32
33191;BME280;19554;42.652;23.364;2023-11-19T09:39:23;94787.94;;;3.86;59.42
33191;BME280;19554;42.652;23.364;2023-11-19T09:41:51;94755.94;;;3.83;59.06
33191;BME280;19554;42.652;23.364;2023-11-19T09:44:16;94760.75;;;3.86;59.13
33191;BME280;19554;42.652;23.364;2023-11-19T09:46:44;94730.53;;;3.60;59.02
33191;BME280;19554;42.652;23.364;2023-11-19T09:49:10;94759.94;;;3.85;59.16
33191;BME280;19554;42.652;23.364;2023-11-19T09:51:36;94758.69;;;3.88;58.90
33191;BME280;19554;42.652;23.364;2023-11-19T09:54:02;94750.78;;;4.10;58.57
33191;BME280;19554;42.652;23.364;2023-11-19T09:56:29;94739.53;;;4.36;57.80
33191;BME280;19554;42.652;23.364;2023-11-19T09:58:55;94719.06;;;4.48;57.62
33191;BME280;19554;42.652;23.364;2023-11-19T10:01:20;94738.44;;;4.76;57.20
33191;BME280;19554;42.652;23.364;2023-11-19T10:03:47;94737.03;;;4.95;57.03
33191;BME280;19554;42.652;23.364;2023-11-19T10:06:14;94739.63;;;4.90;56.99
33191;BME280;19554;42.652;23.364;2023-11-19T10:08:41;94706.59;;;4.66;56.54
33191;BME280;19554;42.652;23.364;2023-11-19T10:11:07;94726.13;;;4.65;56.96
33191;BME280;19554;42.652;23.364;2023-11-19T10:13:35;94724.00;;;4.62;57.56
33191;BME280;19554;42.652;23.364;2023-11-19T10:16:08;94724.63;;;4.74;57.45
33191;BME280;19554;42.652;23.364;2023-11-19T10:18:34;94691.31;;;4.73;57.34
33191;BME280;19554;42.652;23.364;2023-11-19T10:21:04;94732.25;;;4.92;57.22
33191;BME280;19554;42.652;23.364;2023-11-19T10:23:30;94742.41;;;5.06;56.36
33191;BME280;19554;42.652;23.364;2023-11-19T10:26:02;94737.22;;;5.16;55.76
33191;BME280;19554;42.652;23.364;2023-11-19T10:28:38;94753.41;;;4.92;55.52
33191;BME280;19554;42.652;23.364;2023-11-19T10:31:05;94706.09;;;4.69;55.56
33191;BME280;19554;42.652;23.364;2023-11-19T10:33:30;94739.63;;;4.90;55.63
33191;BME280;19554;42.652;23.364;2023-11-19T10:35:59;94731.31;;;5.04;55.67
33191;BME280;19554;42.652;23.364;2023-11-19T10:38:27;94732.69;;;5.11;55.54
33191;BME280;19554;42.652;23.364;2023-11-19T10:40:54;94672.84;;;4.78;54.84
33191;BME280;19554;42.652;23.364;2023-11-19T10:43:20;94713.97;;;5.18;55.34
33191;BME280;19554;42.652;23.364;2023-11-19T10:45:48;94737.31;;;4.99;55.38
33191;BME280;19554;42.652;23.364;2023-11-19T10:48:13;94731.75;;;4.95;55.72
33191;BME280;19554;42.652;23.364;2023-11-19T10:50:41;94724.97;;;5.05;55.49
33191;BME280;19554;42.652;23.364;2023-11-19T10:53:08;94730.22;;;4.99;55.38
33191;BME280;19554;42.652;23.364;2023-11-19T10:55:37;94729.09;;;4.95;55.09
33191;BME280;19554;42.652;23.364;2023-11-19T10:58:07;94649.19;;;4.39;55.63
33191;BME280;19554;42.652;23.364;2023-11-19T11:00:45;94723.41;;;5.09;55.95
33191;BME280;19554;42.652;23.364;2023-11-19T11:03:17;94712.19;;;4.96;55.51
33191;BME280;19554;42.652;23.364;2023-11-19T11:05:46;94716.41;;;4.92;55.75
33191;BME280;19554;42.652;23.364;2023-11-19T11:08:13;94664.19;;;4.83;55.51
33191;BME280;19554;42.652;23.364;2023-11-19T11:10:53;94699.19;;;5.22;55.09
33191;BME280;19554;42.652;23.364;2023-11-19T11:13:19;94692.78;;;5.13;54.96
33191;BME280;19554;42.652;23.364;2023-11-19T11:15:45;94690.94;;;5.13;54.99
33191;BME280;19554;42.652;23.364;2023-11-19T11:18:13;94672.56;;;5.02;54.53
33191;BME280;19554;42.652;23.364;2023-11-19T11:20:39;94687.06;;;5.26;54.14
33191;BME280;19554;42.652;23.364;2023-11-19T11:28:41;94692.09;;;5.28;53.98
33191;BME280;19554;42.652;23.364;2023-11-19T11:31:26;94687.03;;;5.21;54.25
33191;BME280;19554;42.652;23.364;2023-11-19T11:37:23;94693.69;;;5.29;54.13
33191;BME280;19554;42.652;23.364;2023-11-19T11:39:51;94693.00;;;5.38;53.81
33191;BME280;19554;42.652;23.364;2023-11-19T11:45:07;94683.41;;;5.32;54.56
33191;BME280;19554;42.652;23.364;2023-11-19T11:50:09;94654.41;;;5.47;54.17
33191;BME280;19554;42.652;23.364;2023-11-19T11:55:28;94657.28;;;5.41;53.60
33191;BME280;19554;42.652;23.364;2023-11-19T11:57:54;94644.91;;;5.19;53.81
33191;BME280;19554;42.652;23.364;2023-11-19T12:00:37;94669.66;;;5.30;53.88
33191;BME280;19554;42.652;23.364;2023-11-19T12:03:04;94672.72;;;5.22;54.16
33191;BME280;19554;42.652;23.364;2023-11-19T12:05:32;94670.22;;;5.05;54.42
33191;BME280;19554;42.652;23.364;2023-11-19T12:08:04;94665.59;;;4.90;54.87
33191;BME280;19554;42.652;23.364;2023-11-19T12:10:33;94667.25;;;5.02;55.11
33191;BME280;19554;42.652;23.364;2023-11-19T12:13:02;94662.53;;;5.04;54.92
33191;BME280;19554;42.652;23.364;2023-11-19T12:15:31;94651.91;;;4.98;54.79
33191;BME280;19554;42.652;23.364;2023-11-19T12:17:56;94651.44;;;5.07;55.14
33191;BME280;19554;42.652;23.364;2023-11-19T12:20:23;94638.16;;;5.02;54.71
33191;BME280;19554;42.652;23.364;2023-11-19T12:22:50;94647.75;;;5.08;54.78
33191;BME280;19554;42.652;23.364;2023-11-19T12:25:17;94554.19;;;4.55;55.11
33191;BME280;19554;42.652;23.364;2023-11-19T12:27:46;94630.97;;;5.24;55.06
33191;BME280;19554;42.652;23.364;2023-11-19T12:30:12;94630.09;;;5.18;54.85
33191;BME280;19554;42.652;23.364;2023-11-19T12:32:44;94637.34;;;5.33;54.97
33191;BME280;19554;42.652;23.364;2023-11-19T12:35:11;94632.53;;;5.20;54.90
33191;BME280;19554;42.652;23.364;2023-11-19T12:37:52;94537.47;;;4.76;54.84
33191;BME280;19554;42.652;23.364;2023-11-19T12:40:25;94615.09;;;5.29;54.72
33191;BME280;19554;42.652;23.364;2023-11-19T12:42:52;94621.16;;;5.25;55.11
33191;BME280;19554;42.652;23.364;2023-11-19T12:45:18;94606.47;;;5.07;55.21
33191;BME280;19554;42.652;23.364;2023-11-19T12:47:46;94612.94;;;5.21;55.19
33191;BME280;19554;42.652;23.364;2023-11-19T12:50:15;94616.34;;;5.16;55.70
33191;BME280;19554;42.652;23.364;2023-11-19T12:52:55;94615.59;;;5.21;55.63
33191;BME280;19554;42.652;23.364;2023-11-19T12:55:28;94604.72;;;5.22;55.50
33191;BME280;19554;42.652;23.364;2023-11-19T12:57:54;94608.22;;;5.28;55.74
33191;BME280;19554;42.652;23.364;2023-11-19T13:00:25;94608.84;;;5.40;55.36
33191;BME280;19554;42.652;23.364;2023-11-19T13:02:59;94610.38;;;5.36;55.29
33191;BME280;19554;42.652;23.364;2023-11-19T13:05:32;94605.66;;;5.43;55.37
33191;BME280;19554;42.652;23.364;2023-11-19T13:08:08;94602.56;;;5.52;55.24
33191;BME280;19554;42.652;23.364;2023-11-19T13:10:50;94599.97;;;5.62;54.87
33191;BME280;19554;42.652;23.364;2023-11-19T13:13:16;94607.41;;;5.65;54.90
33191;BME280;19554;42.652;23.364;2023-11-19T13:15:42;94598.69;;;5.69;54.78